createdAt,value
2019-03-21T00:02:28.880Z,82.90
2019-03-21T00:05:09.874Z,82.30
2019-03-21T00:07:49.875Z,82.50
2019-03-21T00:10:38.343Z,82.60
2019-03-21T00:13:19.213Z,84.20
2019-03-21T00:15:59.774Z,85.00
2019-03-21T00:18:37.874Z,85.50
2019-03-21T00:24:12.874Z,85.00
2019-03-21T00:26:51.349Z,85.00
2019-03-21T00:29:30.875Z,85.00
2019-03-21T00:32:11.351Z,85.70
2019-03-21T00:34:51.876Z,84.60
2019-03-21T00:37:37.884Z,81.30
2019-03-21T00:40:21.348Z,80.70
2019-03-21T00:42:56.588Z,81.50
2019-03-21T00:45:33.887Z,82.30
2019-03-21T00:48:15.462Z,83.00
2019-03-21T00:50:49.891Z,83.50
2019-03-21T00:53:34.884Z,84.30
2019-03-21T00:56:11.214Z,85.20
2019-03-21T00:58:46.249Z,85.50
2019-03-21T01:01:27.884Z,86.10
2019-03-21T01:04:08.885Z,84.80
2019-03-21T01:06:48.889Z,83.60
2019-03-21T01:09:43.885Z,82.80
2019-03-21T01:12:44.002Z,82.60
2019-03-21T01:15:26.884Z,82.80
2019-03-21T01:18:08.887Z,81.30
2019-03-21T01:20:46.884Z,80.30
2019-03-21T01:23:30.886Z,79.80
2019-03-21T01:26:25.753Z,79.70
2019-03-21T01:29:04.371Z,78.10
2019-03-21T01:31:45.884Z,77.40
2019-03-21T01:34:27.751Z,76.30
2019-03-21T01:37:11.883Z,76.20
2019-03-21T01:39:48.572Z,75.90
2019-03-21T01:42:26.166Z,75.40
2019-03-21T01:45:07.758Z,75.30
2019-03-21T01:48:04.883Z,75.30
2019-03-21T01:50:46.883Z,75.30
2019-03-21T01:53:27.267Z,75.40
2019-03-21T01:56:01.376Z,75.40
2019-03-21T01:58:43.907Z,75.10
2019-03-21T02:01:23.326Z,75.80
2019-03-21T02:03:56.005Z,75.00
2019-03-21T02:06:35.882Z,75.80
2019-03-21T02:09:15.288Z,75.00
2019-03-21T02:11:55.882Z,76.00
2019-03-21T02:14:33.898Z,75.30
2019-03-21T02:17:15.882Z,75.30
2019-03-21T02:19:58.367Z,75.40
2019-03-21T02:22:37.881Z,76.40
2019-03-21T02:25:19.882Z,76.80
2019-03-21T02:28:00.375Z,77.00
2019-03-21T02:30:46.882Z,77.10
2019-03-21T02:33:38.389Z,78.10
2019-03-21T02:36:19.887Z,78.60
2019-03-21T02:39:01.885Z,79.40
2019-03-21T02:41:42.025Z,80.70
2019-03-21T02:44:14.295Z,81.30
2019-03-21T02:46:51.480Z,81.70
2019-03-21T02:49:31.332Z,81.10
2019-03-21T02:52:14.881Z,79.60
2019-03-21T02:54:56.884Z,79.80
2019-03-21T02:57:50.892Z,78.90
2019-03-21T03:00:48.883Z,78.60
2019-03-21T03:03:29.084Z,77.60
2019-03-21T03:06:08.882Z,76.60
2019-03-21T03:08:43.537Z,74.30
2019-03-21T03:11:19.286Z,73.80
2019-03-21T03:14:04.309Z,74.50
2019-03-21T03:16:43.881Z,74.10
2019-03-21T03:19:24.370Z,75.20
2019-03-21T03:22:06.048Z,75.10
2019-03-21T03:24:40.775Z,75.30
2019-03-21T03:30:03.886Z,75.60
2019-03-21T03:32:45.894Z,76.40
2019-03-21T03:35:28.368Z,76.80
2019-03-21T03:38:10.367Z,79.00
2019-03-21T03:40:56.891Z,79.70
2019-03-21T03:43:43.270Z,80.60
2019-03-21T03:46:22.879Z,80.40
2019-03-21T03:49:02.892Z,80.90
2019-03-21T03:51:42.879Z,82.00
2019-03-21T03:54:21.215Z,82.30
2019-03-21T03:57:01.373Z,83.00
2019-03-21T03:59:42.878Z,80.80
2019-03-21T04:02:24.447Z,79.10
2019-03-21T04:07:49.369Z,77.40
2019-03-21T04:10:39.344Z,77.80
2019-03-21T04:13:19.600Z,78.00
2019-03-21T04:15:58.878Z,79.10
2019-03-21T04:18:38.876Z,79.60
2019-03-21T04:21:16.381Z,80.10
2019-03-21T04:23:55.417Z,81.10
2019-03-21T04:29:27.880Z,84.60
2019-03-21T04:32:02.529Z,84.90
2019-03-21T04:34:43.878Z,83.40
2019-03-21T04:37:23.879Z,80.20
2019-03-21T04:40:03.878Z,78.20
2019-03-21T04:42:46.214Z,77.30
2019-03-21T04:45:35.876Z,76.70
2019-03-21T04:48:16.884Z,76.50
2019-03-21T04:50:54.367Z,76.60
2019-03-21T04:53:36.879Z,76.80
2019-03-21T04:56:18.360Z,76.80
2019-03-21T04:58:54.410Z,76.70
2019-03-21T05:01:33.848Z,76.60
2019-03-21T05:04:16.358Z,76.60
2019-03-21T05:06:58.370Z,76.50
2019-03-21T05:09:36.973Z,76.40
2019-03-21T05:12:15.875Z,76.00
2019-03-21T05:14:55.875Z,75.60
2019-03-21T05:17:34.568Z,75.00
2019-03-21T05:20:31.518Z,74.40
2019-03-21T05:23:12.875Z,73.90
2019-03-21T05:26:09.875Z,72.70
2019-03-21T05:28:47.135Z,71.80
2019-03-21T05:34:24.341Z,71.70
2019-03-21T05:37:05.324Z,71.10
2019-03-21T05:39:46.875Z,70.70
2019-03-21T05:42:26.853Z,70.50
2019-03-21T05:45:07.828Z,70.60
2019-03-21T05:47:47.059Z,70.20
2019-03-21T05:50:24.242Z,69.90
2019-03-21T05:53:00.203Z,69.70
2019-03-21T05:55:40.363Z,70.00
2019-03-21T05:58:18.362Z,69.20
2019-03-21T06:01:01.878Z,68.80
2019-03-21T06:03:52.877Z,68.00
2019-03-21T06:06:59.879Z,67.40
2019-03-21T06:09:39.874Z,66.60
2019-03-21T06:12:21.319Z,65.80
2019-03-21T06:15:06.874Z,65.40
2019-03-21T06:17:48.877Z,64.30
2019-03-21T06:20:53.876Z,64.10
2019-03-21T06:23:47.875Z,62.90
2019-03-21T06:26:50.214Z,62.40
2019-03-21T06:29:28.874Z,62.00
2019-03-21T06:32:12.857Z,61.90
2019-03-21T06:34:52.877Z,61.90
2019-03-21T06:37:34.878Z,61.50
2019-03-21T06:42:58.183Z,60.20
2019-03-21T06:45:31.882Z,61.40
2019-03-21T06:50:48.889Z,59.90
2019-03-21T06:53:28.354Z,59.50
2019-03-21T06:56:08.890Z,59.70
2019-03-21T06:58:45.793Z,60.00
2019-03-21T07:01:25.887Z,59.40
2019-03-21T07:04:07.402Z,60.00
2019-03-21T07:06:45.887Z,60.30
2019-03-21T07:09:17.889Z,60.30
2019-03-21T07:11:57.762Z,59.80
2019-03-21T07:14:37.888Z,59.70
2019-03-21T07:17:23.076Z,59.10
2019-03-21T07:19:58.528Z,57.90
2019-03-21T07:22:39.605Z,57.20
2019-03-21T07:25:11.777Z,57.40
2019-03-21T07:27:52.888Z,57.50
2019-03-21T07:30:31.887Z,57.20
2019-03-21T07:33:04.557Z,57.40
2019-03-21T07:35:34.780Z,56.80
2019-03-21T07:38:06.639Z,57.30
2019-03-21T07:40:37.914Z,56.90
2019-03-21T07:43:08.889Z,58.00
2019-03-21T07:45:39.144Z,57.50
2019-03-21T07:48:09.914Z,57.60
2019-03-21T07:50:40.099Z,59.20
2019-03-21T07:53:10.837Z,57.60
2019-03-21T07:55:41.568Z,57.60
2019-03-21T07:58:12.811Z,57.60
2019-03-21T08:00:43.181Z,57.50
2019-03-21T08:03:22.910Z,57.50
2019-03-21T08:06:08.890Z,57.50
2019-03-21T08:08:47.387Z,57.30
2019-03-21T08:11:27.889Z,56.80
2019-03-21T08:14:09.892Z,57.60
2019-03-21T08:16:49.284Z,57.30
2019-03-21T08:19:28.107Z,57.70
2019-03-21T08:22:00.381Z,57.10
2019-03-21T08:27:36.150Z,57.00
2019-03-21T08:30:25.528Z,56.50
2019-03-21T08:33:03.092Z,57.30
2019-03-21T08:35:43.370Z,57.50
2019-03-21T08:38:18.315Z,56.40
2019-03-21T08:41:00.904Z,56.00
2019-03-21T08:43:42.895Z,56.40
2019-03-21T08:46:26.892Z,55.90
2019-03-21T08:48:59.841Z,56.80
2019-03-21T08:51:34.568Z,57.00
2019-03-21T08:54:04.790Z,56.70
2019-03-21T08:56:35.831Z,57.40
2019-03-21T08:59:21.211Z,57.00
2019-03-21T09:01:52.658Z,56.70
2019-03-21T09:04:22.915Z,56.80
2019-03-21T09:06:53.819Z,56.80
2019-03-21T09:09:24.143Z,56.50
2019-03-21T09:11:54.671Z,56.20
2019-03-21T09:14:24.791Z,57.00
2019-03-21T09:17:01.052Z,56.10
2019-03-21T09:19:41.412Z,56.10
2019-03-21T09:22:21.774Z,56.10
2019-03-21T09:24:59.895Z,56.30
2019-03-21T09:27:34.811Z,55.70
2019-03-21T09:30:08.717Z,56.00
2019-03-21T09:32:50.899Z,56.10
2019-03-21T09:35:23.291Z,55.90
2019-03-21T09:37:57.609Z,56.10
2019-03-21T09:40:34.179Z,55.50
2019-03-21T09:43:15.894Z,56.00
2019-03-21T09:45:57.458Z,55.70
2019-03-21T09:48:35.874Z,55.40
2019-03-21T09:51:14.387Z,56.30
2019-03-21T09:54:11.335Z,55.60
2019-03-21T09:56:54.896Z,55.50
2019-03-21T09:59:36.894Z,55.10
2019-03-21T10:02:18.659Z,55.00
2019-03-21T10:05:01.900Z,54.50
2019-03-21T10:07:43.895Z,54.90
2019-03-21T10:10:31.896Z,55.30
2019-03-21T10:13:11.873Z,55.00
2019-03-21T10:15:53.898Z,54.50
2019-03-21T10:18:32.797Z,54.40
2019-03-21T10:21:12.133Z,54.30
2019-03-21T10:23:51.895Z,54.20
2019-03-21T10:26:33.896Z,53.50
2019-03-21T10:29:09.727Z,53.70
2019-03-21T10:31:49.895Z,54.50
2019-03-21T10:34:28.895Z,53.00
2019-03-21T10:37:10.903Z,53.00
2019-03-21T10:39:53.895Z,53.20
2019-03-21T10:42:27.226Z,52.70
2019-03-21T10:45:04.902Z,52.40
2019-03-21T10:47:52.896Z,52.50
2019-03-21T10:50:37.617Z,52.90
2019-03-21T10:53:15.897Z,52.40
2019-03-21T10:55:54.898Z,53.60
2019-03-21T10:58:49.896Z,52.50
2019-03-21T11:01:31.547Z,53.20
2019-03-21T11:04:11.896Z,53.10
2019-03-21T11:06:51.856Z,53.00
2019-03-21T11:09:30.896Z,53.20
2019-03-21T11:12:04.691Z,53.70
2019-03-21T11:14:47.406Z,53.30
2019-03-21T11:17:27.465Z,53.40
2019-03-21T11:20:10.900Z,53.50
2019-03-21T11:22:47.662Z,53.20
2019-03-21T11:25:30.378Z,52.50
2019-03-21T11:28:12.380Z,53.10
2019-03-21T11:30:50.379Z,52.50
2019-03-21T11:33:29.899Z,52.50
2019-03-21T11:36:11.897Z,52.50
2019-03-21T11:38:48.588Z,52.30
2019-03-21T11:41:31.898Z,52.20
2019-03-21T11:44:13.900Z,52.60
2019-03-21T11:46:54.902Z,51.50
2019-03-21T11:49:32.397Z,52.20
2019-03-21T11:52:18.481Z,52.40
2019-03-21T11:54:59.347Z,51.80
2019-03-21T11:57:46.909Z,52.20
2019-03-21T12:00:43.175Z,53.40
2019-03-21T12:03:15.900Z,53.30
2019-03-21T12:05:57.897Z,53.20
2019-03-21T12:08:34.358Z,52.90
2019-03-21T12:11:09.817Z,52.40
2019-03-21T12:13:50.898Z,52.10
2019-03-21T12:16:30.104Z,51.40
2019-03-21T12:19:08.896Z,51.80
2019-03-21T12:21:50.900Z,50.70
2019-03-21T12:24:30.771Z,50.20
2019-03-21T12:27:10.224Z,50.10
2019-03-21T12:29:49.896Z,50.80
2019-03-21T12:32:30.109Z,52.20
2019-03-21T12:35:04.132Z,51.20
2019-03-21T12:37:44.903Z,51.60
2019-03-21T12:40:27.898Z,53.50
2019-03-21T12:43:08.901Z,53.30
2019-03-21T12:45:44.122Z,52.90
2019-03-21T12:48:20.282Z,54.30
2019-03-21T12:51:01.838Z,52.50
2019-03-21T12:53:58.897Z,53.70
2019-03-21T12:56:38.872Z,54.50
2019-03-21T12:59:14.214Z,54.00
2019-03-21T13:01:53.896Z,54.40
2019-03-21T13:04:32.372Z,54.20
2019-03-21T13:07:06.385Z,55.70
2019-03-21T13:10:01.284Z,55.70
2019-03-21T13:12:42.899Z,56.20
2019-03-21T13:15:29.407Z,56.50
2019-03-21T13:18:03.285Z,56.50
2019-03-21T13:20:46.914Z,56.30
2019-03-21T13:23:31.063Z,57.60
2019-03-21T13:26:10.921Z,56.60
2019-03-21T13:28:55.896Z,56.70
2019-03-21T13:31:38.578Z,58.30
2019-03-21T13:34:25.896Z,58.50
2019-03-21T13:37:07.896Z,59.20
2019-03-21T13:39:52.370Z,60.40
2019-03-21T13:42:25.372Z,60.70
2019-03-21T13:45:03.051Z,60.60
2019-03-21T13:47:43.001Z,61.00
2019-03-21T13:50:19.355Z,61.40
2019-03-21T13:53:04.330Z,61.90
2019-03-21T13:55:33.316Z,62.10
2019-03-21T13:58:14.884Z,62.10
2019-03-21T14:00:53.317Z,62.60
2019-03-21T14:03:32.045Z,63.10
2019-03-21T14:06:12.889Z,63.30
2019-03-21T14:08:48.152Z,62.60
2019-03-21T14:11:26.882Z,63.20
2019-03-21T14:14:08.354Z,63.70
2019-03-21T14:16:51.067Z,63.80
2019-03-21T14:19:32.028Z,64.20
2019-03-21T14:22:13.324Z,64.20
2019-03-21T14:24:51.882Z,64.80
2019-03-21T14:27:33.882Z,64.10
2019-03-21T14:30:12.885Z,65.10
2019-03-21T14:32:51.881Z,66.50
2019-03-21T14:35:25.187Z,65.60
2019-03-21T14:38:04.325Z,66.80
2019-03-21T14:40:45.881Z,64.70
2019-03-21T14:43:27.883Z,63.20
2019-03-21T14:46:06.882Z,62.60
2019-03-21T14:48:47.881Z,60.90
2019-03-21T14:51:21.300Z,62.00
2019-03-21T14:53:54.695Z,62.00
2019-03-21T14:56:31.266Z,61.80
2019-03-21T14:59:10.882Z,62.30
2019-03-21T15:01:49.880Z,63.40
2019-03-21T15:04:28.353Z,64.70
2019-03-21T15:07:06.571Z,65.90
2019-03-21T15:09:51.730Z,66.30
2019-03-21T15:12:32.881Z,66.10
2019-03-21T15:15:11.323Z,65.60
2019-03-21T15:17:49.879Z,65.70
2019-03-21T15:20:29.884Z,66.20
2019-03-21T15:23:10.353Z,66.40
2019-03-21T15:25:49.969Z,65.70
2019-03-21T15:28:30.358Z,65.80
2019-03-21T15:31:06.314Z,65.00
2019-03-21T15:33:45.879Z,65.20
2019-03-21T15:36:27.890Z,66.10
2019-03-21T15:39:10.881Z,65.40
2019-03-21T15:41:51.878Z,65.80
2019-03-21T15:44:31.881Z,65.90
2019-03-21T15:47:11.879Z,66.00
2019-03-21T15:50:00.880Z,66.50
2019-03-21T15:52:39.881Z,66.30
2019-03-21T15:55:20.878Z,66.90
2019-03-21T15:57:59.878Z,67.20
2019-03-21T16:00:45.316Z,66.70
2019-03-21T16:03:18.711Z,66.80
2019-03-21T16:05:51.493Z,65.60
2019-03-21T16:08:27.274Z,64.10
2019-03-21T16:11:01.764Z,64.10
2019-03-21T16:13:38.802Z,63.70
2019-03-21T16:16:15.880Z,64.10
2019-03-21T16:18:56.880Z,64.80
2019-03-21T16:21:32.347Z,64.50
2019-03-21T16:24:14.878Z,64.60
2019-03-21T16:26:51.327Z,65.10
2019-03-21T16:29:26.871Z,65.30
2019-03-21T16:32:05.887Z,66.20
2019-03-21T16:34:44.879Z,66.20
2019-03-21T16:37:25.877Z,66.50
2019-03-21T16:40:04.112Z,66.90
2019-03-21T16:42:46.313Z,66.90
2019-03-21T16:45:25.878Z,66.90
2019-03-21T16:48:04.267Z,67.00
2019-03-21T16:50:37.149Z,67.40
2019-03-21T16:53:13.881Z,67.60
2019-03-21T16:55:45.378Z,68.00
2019-03-21T16:58:22.881Z,68.70
2019-03-21T17:01:03.877Z,68.70
2019-03-21T17:03:54.348Z,69.70
2019-03-21T17:06:35.222Z,70.10
2019-03-21T17:09:07.991Z,69.60
2019-03-21T17:11:47.876Z,71.30
2019-03-21T17:14:30.350Z,70.60
2019-03-21T17:17:11.876Z,70.60
2019-03-21T17:19:50.878Z,70.80
2019-03-21T17:22:32.347Z,70.90
2019-03-21T17:25:13.320Z,71.40
2019-03-21T17:27:54.526Z,71.50
2019-03-21T17:30:36.876Z,71.50
2019-03-21T17:33:15.875Z,71.60
2019-03-21T17:35:47.595Z,71.60
2019-03-21T17:38:26.312Z,72.80
2019-03-21T17:41:07.876Z,72.40
2019-03-21T17:43:46.208Z,72.60
2019-03-21T17:46:27.877Z,73.60
2019-03-21T17:49:23.310Z,72.70
2019-03-21T17:51:58.349Z,72.90
2019-03-21T17:54:41.554Z,73.00
2019-03-21T17:57:11.387Z,72.50
2019-03-21T17:59:48.780Z,73.40
2019-03-21T18:02:22.875Z,73.60
2019-03-21T18:05:06.875Z,73.90
2019-03-21T18:07:47.874Z,73.90
2019-03-21T18:10:39.875Z,74.10
2019-03-21T18:13:18.876Z,74.40
2019-03-21T18:15:59.875Z,74.50
2019-03-21T18:18:39.877Z,74.60
2019-03-21T18:21:26.876Z,74.80
2019-03-21T18:24:02.143Z,74.80
2019-03-21T18:26:52.342Z,74.90
2019-03-21T18:29:29.875Z,75.10
2019-03-21T18:32:11.311Z,75.30
2019-03-21T18:34:43.785Z,75.50
2019-03-21T18:37:21.885Z,75.60
2019-03-21T18:39:55.390Z,75.90
2019-03-21T18:42:33.875Z,76.20
2019-03-21T18:45:13.376Z,76.50
2019-03-21T18:47:57.874Z,76.70
2019-03-21T18:50:36.879Z,76.80
2019-03-21T18:53:12.875Z,77.30
2019-03-21T18:55:53.349Z,77.40
2019-03-21T18:58:32.582Z,77.40
2019-03-21T19:01:08.743Z,77.90
2019-03-21T19:03:48.878Z,78.20
2019-03-21T19:06:30.876Z,78.60
2019-03-21T19:09:11.879Z,78.60
2019-03-21T19:11:50.878Z,78.80
2019-03-21T19:14:35.349Z,78.90
2019-03-21T19:17:13.761Z,79.00
2019-03-21T19:19:47.363Z,78.70
2019-03-21T19:22:23.422Z,78.70
2019-03-21T19:25:19.020Z,78.70
2019-03-21T19:27:56.880Z,78.90
2019-03-21T19:30:39.351Z,78.80
2019-03-21T19:33:20.878Z,78.70
2019-03-21T19:35:58.879Z,78.40
2019-03-21T19:38:41.346Z,78.60
2019-03-21T19:41:21.879Z,78.70
2019-03-21T19:43:59.881Z,78.60
2019-03-21T19:46:39.878Z,78.30
2019-03-21T19:49:14.180Z,78.30
2019-03-21T19:51:53.889Z,78.30
2019-03-21T19:54:38.882Z,78.40
2019-03-21T19:57:18.878Z,78.40
2019-03-21T20:00:01.884Z,78.50
2019-03-21T20:05:30.460Z,77.90
2019-03-21T20:08:00.038Z,78.60
2019-03-21T20:10:29.624Z,78.70
2019-03-21T20:12:59.199Z,78.70
2019-03-21T20:15:29.860Z,78.60
2019-03-21T20:17:59.440Z,78.60
2019-03-21T20:20:30.956Z,78.80
2019-03-21T20:23:00.278Z,78.80
2019-03-21T20:25:41.923Z,78.80
2019-03-21T20:28:01.149Z,78.70
2019-03-21T20:30:30.731Z,78.90
2019-03-21T20:33:00.302Z,78.80
2019-03-21T20:35:30.011Z,79.00
2019-03-21T20:37:59.585Z,79.10
2019-03-21T20:40:29.112Z,79.10
2019-03-21T20:42:58.873Z,79.10
2019-03-21T20:45:28.776Z,79.10
2019-03-21T20:47:58.334Z,79.30
2019-03-21T20:50:27.912Z,79.30
2019-03-21T20:52:57.459Z,79.30
2019-03-21T20:55:27.063Z,79.20
2019-03-21T20:58:02.626Z,79.30
2019-03-21T21:00:32.343Z,79.20
2019-03-21T21:03:01.890Z,79.30
2019-03-21T21:05:31.527Z,79.60
2019-03-21T21:08:01.078Z,79.60
2019-03-21T21:10:30.739Z,79.50
2019-03-21T21:13:00.326Z,79.70
2019-03-21T21:15:30.180Z,79.60
2019-03-21T21:18:00.570Z,79.70
2019-03-21T21:20:30.126Z,80.10
2019-03-21T21:22:59.682Z,79.70
2019-03-21T21:25:29.255Z,79.80
2019-03-21T21:27:58.800Z,79.90
2019-03-21T21:30:28.367Z,79.90
2019-03-21T21:32:59.323Z,79.90
2019-03-21T21:35:28.889Z,79.90
2019-03-21T21:37:58.655Z,79.90
2019-03-21T21:40:29.115Z,80.00
2019-03-21T21:42:58.846Z,80.00
2019-03-21T21:45:28.427Z,80.10
2019-03-21T21:47:57.967Z,80.20
2019-03-21T21:50:27.558Z,80.20
2019-03-21T21:52:57.095Z,80.90
2019-03-21T21:55:26.644Z,80.40
2019-03-21T21:57:56.407Z,80.60
2019-03-21T22:00:25.971Z,80.80
2019-03-21T22:02:55.541Z,80.80
2019-03-21T22:05:25.087Z,80.80
2019-03-21T22:07:54.760Z,81.00
2019-03-21T22:10:24.338Z,81.50
2019-03-21T22:12:53.966Z,80.30
2019-03-21T22:15:23.622Z,81.60
2019-03-21T22:17:54.200Z,81.30
2019-03-21T22:20:23.898Z,82.60
2019-03-21T22:22:53.448Z,82.80
2019-03-21T22:25:23.380Z,84.30
2019-03-21T22:27:52.949Z,83.80
2019-03-21T22:30:22.780Z,83.50
2019-03-21T22:32:52.331Z,84.10
2019-03-21T22:35:21.896Z,86.10
2019-03-21T22:37:51.443Z,85.80
2019-03-21T22:40:21.321Z,86.20
2019-03-21T22:42:50.875Z,86.50
2019-03-21T22:45:20.432Z,88.30
2019-03-21T22:47:50.922Z,89.90
2019-03-21T22:50:21.546Z,90.40
2019-03-21T22:52:51.286Z,90.90
2019-03-21T22:55:20.846Z,91.10
2019-03-21T22:57:50.379Z,91.00
2019-03-21T23:00:22.561Z,91.20
2019-03-21T23:02:53.643Z,91.10
2019-03-21T23:05:23.201Z,91.00
2019-03-21T23:07:52.772Z,90.90
2019-03-21T23:10:22.501Z,90.80
2019-03-21T23:12:52.060Z,90.60
2019-03-21T23:15:21.616Z,90.50
2019-03-21T23:17:51.471Z,90.60
2019-03-21T23:20:28.923Z,90.50
2019-03-21T23:23:07.336Z,90.60
2019-03-21T23:25:44.760Z,90.70
2019-03-21T23:28:15.767Z,90.20
2019-03-21T23:30:45.320Z,88.70
2019-03-21T23:33:14.882Z,87.00
2019-03-21T23:35:44.428Z,86.00
2019-03-21T23:38:13.968Z,85.40
2019-03-21T23:40:43.810Z,85.10
2019-03-21T23:43:13.347Z,84.50
2019-03-21T23:45:42.893Z,84.40
2019-03-21T23:48:13.637Z,84.10
2019-03-21T23:50:43.171Z,83.90
2019-03-21T23:53:12.901Z,83.70
2019-03-21T23:55:42.451Z,83.60
2019-03-21T23:58:12.003Z,83.40
